createdAt,value
2022-08-04T00:00:44.760Z,94278.34
2022-08-04T00:03:28.746Z,94279.13
2022-08-04T00:06:14.183Z,94286.50
2022-08-04T00:08:58.394Z,94275.22
2022-08-04T00:11:29.305Z,94278.28
2022-08-04T00:14:04.044Z,94277.53
2022-08-04T00:16:37.747Z,94272.06
2022-08-04T00:19:25.093Z,94275.06
2022-08-04T00:21:57.367Z,94274.94
2022-08-04T00:24:24.369Z,94272.16
2022-08-04T00:26:53.992Z,94278.03
2022-08-04T00:29:23.044Z,94276.44
2022-08-04T00:31:54.759Z,94269.50
2022-08-04T00:34:29.493Z,94276.28
2022-08-04T00:37:00.124Z,94271.28
2022-08-04T00:39:28.291Z,94270.53
2022-08-04T00:42:17.694Z,94272.88
2022-08-04T00:44:44.392Z,94278.75
2022-08-04T00:47:29.428Z,94277.22
2022-08-04T00:50:09.417Z,94271.41
2022-08-04T00:52:41.568Z,94274.50
2022-08-04T00:55:52.627Z,94276.06
2022-08-04T00:58:19.277Z,94276.84
2022-08-04T01:00:55.132Z,94279.94
2022-08-04T01:03:34.392Z,94276.81
2022-08-04T01:06:36.202Z,94274.06
2022-08-04T01:09:27.177Z,94270.19
2022-08-04T01:12:07.216Z,94274.44
2022-08-04T01:15:18.047Z,94268.22
2022-08-04T01:18:08.055Z,94266.25
2022-08-04T01:21:21.723Z,94275.22
2022-08-04T01:24:16.422Z,94275.22
2022-08-04T01:27:04.123Z,94273.66
2022-08-04T01:29:46.669Z,94280.28
2022-08-04T01:32:20.946Z,94277.94
2022-08-04T01:35:02.573Z,94271.72
2022-08-04T01:37:41.420Z,94275.59
2022-08-04T01:40:08.854Z,94270.53
2022-08-04T01:42:36.995Z,94267.81
2022-08-04T01:45:06.960Z,94268.59
2022-08-04T01:47:36.685Z,94265.88
2022-08-04T01:50:12.805Z,94262.78
2022-08-04T01:52:42.267Z,94269.41
2022-08-04T01:55:12.096Z,94264.34
2022-08-04T01:57:46.841Z,94262.41
2022-08-04T02:00:16.487Z,94262.78
2022-08-04T02:02:45.040Z,94260.81
2022-08-04T02:05:14.769Z,94251.47
2022-08-04T02:07:56.610Z,94244.03
2022-08-04T02:10:34.711Z,94260.72
2022-08-04T02:13:10.837Z,94263.44
2022-08-04T02:15:58.559Z,94262.63
2022-08-04T02:18:33.327Z,94250.16
2022-08-04T02:21:04.260Z,94256.38
2022-08-04T02:23:34.779Z,94255.59
2022-08-04T02:26:04.374Z,94250.53
2022-08-04T02:28:47.054Z,94245.84
2022-08-04T02:31:29.069Z,94246.66
2022-08-04T02:34:08.519Z,94250.91
2022-08-04T02:36:41.104Z,94234.19
2022-08-04T02:39:12.241Z,94236.13
2022-08-04T02:41:42.915Z,94242.69
2022-08-04T02:44:10.531Z,94231.03
2022-08-04T02:46:38.994Z,94235.69
2022-08-04T02:49:08.311Z,94234.94
2022-08-04T02:51:42.163Z,94225.19
2022-08-04T02:54:09.282Z,94227.50
2022-08-04T02:56:38.706Z,94225.13
2022-08-04T02:59:07.229Z,94228.25
2022-08-04T03:01:35.355Z,94222.03
2022-08-04T03:04:27.325Z,94218.53
2022-08-04T03:07:17.955Z,94213.88
2022-08-04T03:09:47.514Z,94230.59
2022-08-04T03:12:17.171Z,94222.84
2022-08-04T03:15:17.266Z,94214.25
2022-08-04T03:18:07.228Z,94217.72
2022-08-04T03:21:14.011Z,94217.25
2022-08-04T03:24:22.490Z,94220.72
2022-08-04T03:27:07.995Z,94218.06
2022-08-04T03:30:05.697Z,94218.13
2022-08-04T03:32:41.475Z,94216.63
2022-08-04T03:35:33.138Z,94219.31
2022-08-04T03:38:37.259Z,94219.66
2022-08-04T03:41:51.693Z,94229.00
2022-08-04T03:44:50.911Z,94220.50
2022-08-04T03:47:45.070Z,94234.41
2022-08-04T03:50:24.130Z,94232.41
2022-08-04T03:53:29.146Z,94236.66
2022-08-04T03:56:30.111Z,94236.63
2022-08-04T03:59:21.220Z,94234.69
2022-08-04T04:02:16.672Z,94235.09
2022-08-04T04:04:52.498Z,94228.47
2022-08-04T04:08:01.902Z,94223.34
2022-08-04T04:11:10.303Z,94225.69
2022-08-04T04:14:05.407Z,94230.38
2022-08-04T04:16:44.027Z,94228.88
2022-08-04T04:19:36.830Z,94221.53
2022-08-04T04:22:09.512Z,94228.13
2022-08-04T04:24:39.631Z,94232.44
2022-08-04T04:27:22.933Z,94230.91
2022-08-04T04:30:09.363Z,94223.50
2022-08-04T04:33:09.069Z,94229.69
2022-08-04T04:35:42.098Z,94231.22
2022-08-04T04:38:27.468Z,94237.88
2022-08-04T04:41:10.526Z,94233.63
2022-08-04T04:43:51.580Z,94243.00
2022-08-04T04:46:40.894Z,94244.53
2022-08-04T04:49:31.402Z,94237.59
2022-08-04T04:52:24.168Z,94241.91
2022-08-04T04:55:16.213Z,94242.31
2022-08-04T04:57:53.791Z,94243.91
2022-08-04T05:00:25.299Z,94242.38
2022-08-04T05:03:13.861Z,94255.66
2022-08-04T05:06:09.899Z,94248.66
2022-08-04T05:08:54.392Z,94251.03
2022-08-04T05:11:39.602Z,94253.75
2022-08-04T05:14:36.108Z,94260.41
2022-08-04T05:17:15.672Z,94251.88
2022-08-04T05:19:42.313Z,94267.44
2022-08-04T05:22:14.815Z,94261.63
2022-08-04T05:24:46.851Z,94259.31
2022-08-04T05:27:22.914Z,94256.22
2022-08-04T05:30:03.240Z,94262.44
2022-08-04T05:32:37.454Z,94261.25
2022-08-04T05:35:09.994Z,94267.09
2022-08-04T05:37:39.387Z,94261.94
2022-08-04T05:40:07.576Z,94264.63
2022-08-04T05:42:38.291Z,94257.88
2022-08-04T05:45:07.922Z,94264.00
2022-08-04T05:47:35.812Z,94261.22
2022-08-04T05:50:04.839Z,94266.22
2022-08-04T05:52:33.010Z,94263.75
2022-08-04T05:55:01.698Z,94259.00
2022-08-04T05:57:29.472Z,94263.56
2022-08-04T05:59:59.006Z,94266.50
2022-08-04T06:02:28.480Z,94261.66
2022-08-04T06:04:56.320Z,94254.91
2022-08-04T06:07:23.225Z,94259.09
2022-08-04T06:09:50.022Z,94266.34
2022-08-04T06:12:31.095Z,94266.28
2022-08-04T06:15:00.162Z,94258.34
2022-08-04T06:19:27.599Z,94260.84
2022-08-04T06:20:34.587Z,94268.13
2022-08-04T06:23:06.108Z,94258.63
2022-08-04T06:25:36.906Z,94263.59
2022-08-04T06:28:06.536Z,94262.34
2022-08-04T06:30:34.469Z,94271.25
2022-08-04T06:33:05.145Z,94267.31
2022-08-04T06:35:33.233Z,94268.41
2022-08-04T06:38:01.746Z,94269.53
2022-08-04T06:40:32.301Z,94265.19
2022-08-04T06:43:02.963Z,94270.06
2022-08-04T06:45:31.198Z,94267.03
2022-08-04T06:48:00.069Z,94266.53
2022-08-04T06:51:29.344Z,94271.66
2022-08-04T06:53:14.319Z,94272.38
2022-08-04T06:55:43.362Z,94270.81
2022-08-04T06:58:11.004Z,94274.47
2022-08-04T07:00:39.148Z,94278.28
2022-08-04T07:03:07.227Z,94280.47
2022-08-04T07:05:36.010Z,94277.97
2022-08-04T07:08:02.995Z,94276.66
2022-08-04T07:10:30.853Z,94280.06
2022-08-04T07:12:58.734Z,94281.88
2022-08-04T07:15:27.011Z,94281.97
2022-08-04T07:17:55.023Z,94286.31
2022-08-04T07:20:35.976Z,94281.63
2022-08-04T07:23:07.270Z,94278.69
2022-08-04T07:25:57.245Z,94279.19
2022-08-04T07:28:27.512Z,94278.78
2022-08-04T07:30:55.178Z,94273.78
2022-08-04T07:33:23.537Z,94279.53
2022-08-04T07:36:05.791Z,94278.44
2022-08-04T07:38:51.454Z,94279.25
2022-08-04T07:41:38.323Z,94270.47
2022-08-04T07:44:05.631Z,94281.06
2022-08-04T07:46:32.576Z,94274.44
2022-08-04T07:49:03.268Z,94276.88
2022-08-04T07:51:31.576Z,94277.66
2022-08-04T07:54:00.415Z,94274.13
2022-08-04T07:56:28.524Z,94262.88
2022-08-04T07:58:55.887Z,94269.63
2022-08-04T08:01:26.972Z,94270.81
2022-08-04T08:03:56.325Z,94266.03
2022-08-04T08:06:30.960Z,94266.16
2022-08-04T08:09:12.580Z,94261.00
2022-08-04T08:12:38.606Z,94272.13
2022-08-04T08:14:35.531Z,94266.19
2022-08-04T08:17:03.322Z,94270.03
2022-08-04T08:19:31.072Z,94259.41
2022-08-04T08:22:00.569Z,94264.19
2022-08-04T08:24:34.857Z,94268.38
2022-08-04T08:27:04.385Z,94268.16
2022-08-04T08:29:33.883Z,94267.47
2022-08-04T08:32:07.256Z,94259.56
2022-08-04T08:34:36.080Z,94256.69
2022-08-04T08:37:14.939Z,94260.69
2022-08-04T08:39:53.506Z,94255.66
2022-08-04T08:42:39.100Z,94266.44
2022-08-04T08:45:27.138Z,94262.88
2022-08-04T08:48:35.523Z,94254.38
2022-08-04T08:51:22.540Z,94267.41
2022-08-04T08:54:13.630Z,94272.97
2022-08-04T08:56:52.260Z,94269.94
2022-08-04T08:59:22.451Z,94263.44
2022-08-04T09:02:17.163Z,94257.13
2022-08-04T09:04:57.539Z,94261.25
2022-08-04T09:07:51.902Z,94260.19
2022-08-04T09:10:49.027Z,94278.34
2022-08-04T09:13:26.766Z,94268.03
2022-08-04T09:16:11.854Z,94262.22
2022-08-04T09:18:55.267Z,94261.59
2022-08-04T09:21:34.007Z,94262.50
2022-08-04T09:24:36.397Z,94267.88
2022-08-04T09:27:03.691Z,94268.97
2022-08-04T09:29:43.339Z,94268.75
2022-08-04T09:32:33.531Z,94262.91
2022-08-04T09:35:09.629Z,94265.50
2022-08-04T09:37:54.796Z,94263.91
2022-08-04T09:40:31.382Z,94267.84
2022-08-04T09:43:23.499Z,94262.84
2022-08-04T09:46:04.267Z,94254.38
2022-08-04T09:48:55.595Z,94268.19
2022-08-04T09:51:58.695Z,94254.19
2022-08-04T09:54:39.719Z,94264.06
2022-08-04T09:57:21.683Z,94264.44
2022-08-04T09:59:59.185Z,94247.16
2022-08-04T10:02:35.090Z,94249.28
2022-08-04T10:05:05.266Z,94250.66
2022-08-04T10:08:04.772Z,94255.78
2022-08-04T10:10:46.268Z,94240.41
2022-08-04T10:13:26.090Z,94253.13
2022-08-04T10:16:14.421Z,94257.41
2022-08-04T10:18:44.414Z,94250.50
2022-08-04T10:21:19.345Z,94251.47
2022-08-04T10:24:00.117Z,94248.72
2022-08-04T10:26:27.231Z,94249.19
2022-08-04T10:29:16.503Z,94240.47
2022-08-04T10:31:49.393Z,94241.88
2022-08-04T10:34:24.973Z,94244.53
2022-08-04T10:36:59.234Z,94238.50
2022-08-04T10:39:42.227Z,94223.56
2022-08-04T10:42:10.454Z,94228.38
2022-08-04T10:45:17.941Z,94231.88
2022-08-04T10:47:54.513Z,94227.66
2022-08-04T10:50:25.405Z,94227.56
2022-08-04T10:53:03.196Z,94229.22
2022-08-04T10:56:07.718Z,94228.69
2022-08-04T10:58:48.058Z,94218.97
2022-08-04T11:02:01.740Z,94220.91
2022-08-04T11:04:40.870Z,94216.59
2022-08-04T11:07:09.344Z,94217.78
2022-08-04T11:09:37.083Z,94221.25
2022-08-04T11:12:16.362Z,94228.59
2022-08-04T11:14:49.397Z,94217.41
2022-08-04T11:17:26.261Z,94216.34
2022-08-04T11:20:32.217Z,94220.50
2022-08-04T11:23:04.507Z,94215.91
2022-08-04T11:25:55.854Z,94220.19
2022-08-04T11:28:33.271Z,94220.19
2022-08-04T11:31:12.331Z,94209.81
2022-08-04T11:34:04.398Z,94216.66
2022-08-04T11:36:44.380Z,94208.94
2022-08-04T11:39:24.442Z,94215.63
2022-08-04T11:42:15.464Z,94207.56
2022-08-04T11:44:48.015Z,94210.66
2022-08-04T11:47:47.705Z,94214.03
2022-08-04T11:50:35.003Z,94207.31
2022-08-04T11:53:03.639Z,94206.53
2022-08-04T11:55:32.668Z,94205.50
2022-08-04T11:58:21.291Z,94208.50
2022-08-04T12:00:59.511Z,94210.22
2022-08-04T12:04:03.179Z,94212.06
2022-08-04T12:06:57.005Z,94198.16
2022-08-04T12:09:48.864Z,94199.41
2022-08-04T12:12:52.276Z,94203.34
2022-08-04T12:15:51.914Z,94195.97
2022-08-04T12:18:27.837Z,94194.88
2022-08-04T12:21:12.563Z,94181.03
2022-08-04T12:23:43.893Z,94193.56
2022-08-04T12:26:32.671Z,94194.97
2022-08-04T12:29:10.571Z,94191.81
2022-08-04T12:31:46.951Z,94193.69
2022-08-04T12:34:21.308Z,94185.56
2022-08-04T12:37:09.688Z,94180.72
2022-08-04T12:40:28.980Z,94189.13
2022-08-04T12:42:42.143Z,94181.69
2022-08-04T12:45:26.329Z,94180.75
2022-08-04T12:47:56.681Z,94182.53
2022-08-04T12:50:24.396Z,94183.84
2022-08-04T12:53:04.106Z,94175.78
2022-08-04T12:55:34.396Z,94170.31
2022-08-04T12:58:03.964Z,94176.38
2022-08-04T13:00:41.251Z,94174.53
2022-08-04T13:03:17.348Z,94169.38
2022-08-04T13:05:45.429Z,94172.38
2022-08-04T13:08:13.435Z,94169.34
2022-08-04T13:10:46.977Z,94165.75
2022-08-04T13:13:24.377Z,94161.59
2022-08-04T13:15:57.623Z,94158.47
2022-08-04T13:18:30.023Z,94155.31
2022-08-04T13:21:20.814Z,94159.91
2022-08-04T13:24:20.281Z,94157.84
2022-08-04T13:27:09.059Z,94148.59
2022-08-04T13:29:59.006Z,94149.19
2022-08-04T13:32:30.643Z,94139.16
2022-08-04T13:35:00.770Z,94141.53
2022-08-04T13:37:34.985Z,94138.38
2022-08-04T13:40:05.087Z,94134.94
2022-08-04T13:42:35.762Z,94141.06
2022-08-04T13:45:05.980Z,94142.13
2022-08-04T13:47:37.277Z,94137.88
2022-08-04T13:50:27.188Z,94145.00
2022-08-04T13:52:57.177Z,94131.19
2022-08-04T13:55:27.358Z,94139.03
2022-08-04T13:58:14.325Z,94125.19
2022-08-04T14:00:49.503Z,94130.44
2022-08-04T14:03:27.166Z,94124.50
2022-08-04T14:06:14.198Z,94125.22
2022-08-04T14:08:48.488Z,94115.69
2022-08-04T14:12:10.703Z,94119.72
2022-08-04T14:14:19.380Z,94128.63
2022-08-04T14:16:55.979Z,94124.06
2022-08-04T14:19:24.257Z,94126.25
2022-08-04T14:21:53.442Z,94116.44
2022-08-04T14:24:27.002Z,94119.09
2022-08-04T14:27:00.550Z,94103.06
2022-08-04T14:29:37.667Z,94109.19
2022-08-04T14:32:12.633Z,94113.84
2022-08-04T14:34:45.155Z,94102.88
2022-08-04T14:37:18.561Z,94099.25
2022-08-04T14:40:08.020Z,94104.47
2022-08-04T14:42:55.504Z,94103.66
2022-08-04T14:45:35.483Z,94101.47
2022-08-04T14:48:07.547Z,94101.19
2022-08-04T14:50:35.680Z,94105.88
2022-08-04T14:53:11.662Z,94103.31
2022-08-04T14:55:42.827Z,94101.47
2022-08-04T14:58:36.227Z,94107.50
2022-08-04T15:01:10.192Z,94103.81
2022-08-04T15:03:49.956Z,94096.72
2022-08-04T15:06:26.053Z,94100.63
2022-08-04T15:08:54.716Z,94107.03
2022-08-04T15:11:24.295Z,94107.59
2022-08-04T15:13:56.319Z,94099.59
2022-08-04T15:16:24.852Z,94097.44
2022-08-04T15:18:52.767Z,94097.88
2022-08-04T15:21:22.779Z,94097.31
2022-08-04T15:23:50.850Z,94092.03
2022-08-04T15:26:44.605Z,94097.47
2022-08-04T15:29:16.850Z,94095.56
2022-08-04T15:32:05.632Z,94085.81
2022-08-04T15:35:02.869Z,94092.69
2022-08-04T15:38:02.484Z,94088.78
2022-08-04T15:40:38.763Z,94089.25
2022-08-04T15:43:21.265Z,94092.44
2022-08-04T15:46:30.759Z,94089.19
2022-08-04T15:48:39.807Z,94086.94
2022-08-04T15:51:14.188Z,94078.69
2022-08-04T15:54:02.747Z,94090.72
2022-08-04T15:56:28.285Z,94087.09
2022-08-04T15:58:56.972Z,94081.53
2022-08-04T16:01:24.266Z,94075.81
2022-08-04T16:03:57.855Z,94075.97
2022-08-04T16:06:29.394Z,94070.97
2022-08-04T16:09:02.651Z,94075.41
2022-08-04T16:11:31.019Z,94076.56
2022-08-04T16:13:58.506Z,94077.72
2022-08-04T16:16:37.454Z,94079.91
2022-08-04T16:19:06.385Z,94070.97
2022-08-04T16:21:35.680Z,94069.06
2022-08-04T16:24:33.438Z,94071.09
2022-08-04T16:27:01.741Z,94063.81
2022-08-04T16:29:30.553Z,94065.81
2022-08-04T16:32:06.960Z,94054.50
2022-08-04T16:34:55.594Z,94061.13
2022-08-04T16:37:42.878Z,94056.63
2022-08-04T16:40:27.403Z,94063.25
2022-08-04T16:43:03.323Z,94062.38
2022-08-04T16:45:45.401Z,94056.81
2022-08-04T16:48:14.314Z,94053.75
2022-08-04T16:50:50.725Z,94048.34
2022-08-04T16:54:02.676Z,94050.47
2022-08-04T16:56:08.961Z,94048.66
2022-08-04T16:58:36.707Z,94053.59
2022-08-04T17:01:32.666Z,94044.69
2022-08-04T17:04:04.825Z,94047.63
2022-08-04T17:06:41.498Z,94044.78
2022-08-04T17:09:17.049Z,94038.16
2022-08-04T17:11:45.035Z,94037.88
2022-08-04T17:14:11.886Z,94036.22
2022-08-04T17:16:42.272Z,94031.78
2022-08-04T17:19:24.005Z,94032.94
2022-08-04T17:22:02.318Z,94030.63
2022-08-04T17:24:31.064Z,94031.41
2022-08-04T17:26:58.406Z,94025.44
2022-08-04T17:29:43.910Z,94024.38
2022-08-04T17:32:21.543Z,94030.41
2022-08-04T17:34:54.752Z,94029.78
2022-08-04T17:37:40.252Z,94032.75
2022-08-04T17:40:18.318Z,94022.31
2022-08-04T17:42:50.914Z,94017.69
2022-08-04T17:45:50.819Z,94021.72
2022-08-04T17:48:09.550Z,94028.66
2022-08-04T17:50:36.723Z,94021.97
2022-08-04T17:53:11.103Z,94017.06
2022-08-04T17:55:47.553Z,94023.06
2022-08-04T17:58:23.100Z,94030.78
2022-08-04T18:01:24.232Z,94024.34
2022-08-04T18:03:53.214Z,94020.88
2022-08-04T18:06:23.127Z,94023.50
2022-08-04T18:08:57.600Z,94031.50
2022-08-04T18:14:11.678Z,94030.38
2022-08-04T18:16:45.351Z,94033.75
2022-08-04T18:19:14.597Z,94031.16
2022-08-04T18:21:46.822Z,94026.28
2022-08-04T18:24:34.189Z,94026.59
2022-08-04T18:27:03.323Z,94031.69
2022-08-04T18:29:34.425Z,94028.28
2022-08-04T18:32:07.035Z,94027.88
2022-08-04T18:34:40.836Z,94032.03
2022-08-04T18:38:06.033Z,94028.03
2022-08-04T18:40:26.738Z,94026.84
2022-08-04T18:42:56.664Z,94031.91
2022-08-04T18:45:24.186Z,94038.84
2022-08-04T18:48:01.869Z,94035.78
2022-08-04T18:50:59.425Z,94038.81
2022-08-04T18:53:16.516Z,94039.28
2022-08-04T18:55:56.611Z,94045.91
2022-08-04T18:58:27.108Z,94041.31
2022-08-04T19:01:14.258Z,94048.69
2022-08-04T19:03:44.198Z,94050.22
2022-08-04T19:06:12.279Z,94050.09
2022-08-04T19:08:42.188Z,94053.66
2022-08-04T19:11:38.725Z,94053.97
2022-08-04T19:13:58.683Z,94054.00
2022-08-04T19:16:28.480Z,94060.59
2022-08-04T19:18:56.044Z,94060.22
2022-08-04T19:22:00.221Z,94065.66
2022-08-04T19:24:32.214Z,94072.31
2022-08-04T19:26:59.347Z,94075.88
2022-08-04T19:29:26.026Z,94064.13
2022-08-04T19:32:14.061Z,94082.41
2022-08-04T19:34:46.250Z,94077.16
2022-08-04T19:37:57.557Z,94078.16
2022-08-04T19:40:08.021Z,94066.06
2022-08-04T19:42:36.105Z,94073.34
2022-08-04T19:45:03.166Z,94081.19
2022-08-04T19:48:17.190Z,94076.66
2022-08-04T19:50:16.851Z,94082.69
2022-08-04T19:52:49.196Z,94081.91
2022-08-04T19:55:37.081Z,94080.38
2022-08-04T19:58:08.281Z,94091.41
2022-08-04T20:00:37.807Z,94091.06
2022-08-04T20:03:11.797Z,94089.44
2022-08-04T20:05:53.733Z,94076.91
2022-08-04T20:08:31.490Z,94085.81
2022-08-04T20:10:59.396Z,94089.88
2022-08-04T20:13:36.888Z,94090.53
2022-08-04T20:16:28.239Z,94088.66
2022-08-04T20:18:56.632Z,94089.63
2022-08-04T20:21:55.755Z,94079.28
2022-08-04T20:24:38.055Z,94085.72
2022-08-04T20:26:59.525Z,94086.91
2022-08-04T20:29:40.646Z,94086.13
2022-08-04T20:32:09.853Z,94089.00
2022-08-04T20:34:37.586Z,94090.41
2022-08-04T20:37:06.936Z,94100.41
2022-08-04T20:39:37.871Z,94092.88
2022-08-04T20:42:07.287Z,94086.41
2022-08-04T20:44:38.272Z,94089.34
2022-08-04T20:47:09.035Z,94086.25
2022-08-04T20:49:35.715Z,94088.34
2022-08-04T20:52:14.751Z,94097.59
2022-08-04T20:54:48.412Z,94089.69
2022-08-04T20:57:16.635Z,94095.09
2022-08-04T20:59:44.061Z,94080.66
2022-08-04T21:02:26.739Z,94079.38
2022-08-04T21:04:53.791Z,94089.22
2022-08-04T21:07:22.206Z,94082.66
2022-08-04T21:09:50.821Z,94079.31
2022-08-04T21:12:27.768Z,94088.03
2022-08-04T21:15:13.284Z,94097.56
2022-08-04T21:17:58.930Z,94092.84
2022-08-04T21:20:28.683Z,94103.66
2022-08-04T21:22:59.885Z,94092.34
2022-08-04T21:25:29.394Z,94086.06
2022-08-04T21:27:58.732Z,94090.78
2022-08-04T21:30:26.799Z,94096.28
2022-08-04T21:32:55.366Z,94094.72
2022-08-04T21:35:36.854Z,94098.06
2022-08-04T21:38:17.663Z,94083.72
2022-08-04T21:40:56.177Z,94084.84
2022-08-04T21:43:27.111Z,94077.06
2022-08-04T21:45:54.762Z,94087.59
2022-08-04T21:48:21.471Z,94085.34
2022-08-04T21:50:50.469Z,94082.34
2022-08-04T21:53:19.822Z,94082.69
2022-08-04T21:56:04.882Z,94089.72
2022-08-04T21:58:36.238Z,94091.34
2022-08-04T22:01:13.143Z,94085.91
2022-08-04T22:03:53.243Z,94083.72
2022-08-04T22:06:28.350Z,94092.78
2022-08-04T22:08:56.269Z,94088.63
2022-08-04T22:11:49.229Z,94095.72
2022-08-04T22:14:27.606Z,94084.84
2022-08-04T22:16:57.507Z,94084.91
2022-08-04T22:19:39.815Z,94072.44
2022-08-04T22:22:12.589Z,94084.63
2022-08-04T22:24:51.855Z,94083.06
2022-08-04T22:27:37.483Z,94072.94
2022-08-04T22:30:17.290Z,94079.69
2022-08-04T22:32:47.049Z,94072.38
2022-08-04T22:35:33.296Z,94062.41
2022-08-04T22:38:06.290Z,94073.72
2022-08-04T22:40:38.331Z,94067.19
2022-08-04T22:43:32.090Z,94059.09
2022-08-04T22:45:51.786Z,94070.28
2022-08-04T22:48:18.621Z,94066.16
2022-08-04T22:50:45.388Z,94066.63
2022-08-04T22:53:12.057Z,94067.53
2022-08-04T22:56:06.384Z,94065.34
2022-08-04T22:58:31.684Z,94061.31
2022-08-04T23:00:58.669Z,94062.56
2022-08-04T23:03:36.817Z,94040.06
2022-08-04T23:06:07.173Z,94062.97
2022-08-04T23:08:38.500Z,94060.22
2022-08-04T23:11:09.745Z,94059.53
2022-08-04T23:13:36.910Z,94059.59
2022-08-04T23:16:05.761Z,94061.19
2022-08-04T23:18:36.833Z,94058.09
2022-08-04T23:21:09.206Z,94056.50
2022-08-04T23:23:45.244Z,94055.78
2022-08-04T23:26:27.365Z,94058.56
2022-08-04T23:28:54.223Z,94067.13
2022-08-04T23:31:20.961Z,94062.91
2022-08-04T23:33:51.110Z,94054.59
2022-08-04T23:36:19.431Z,94053.75
2022-08-04T23:38:59.489Z,94051.06
2022-08-04T23:41:55.292Z,94044.06
2022-08-04T23:44:17.670Z,94035.91
2022-08-04T23:47:00.162Z,94042.97
2022-08-04T23:49:44.159Z,94047.38
2022-08-04T23:52:28.203Z,94044.66
2022-08-04T23:54:58.724Z,94044.41
2022-08-04T23:57:30.922Z,94043.25
